createdAt,value
2019-02-24T00:00:41.718Z,49.93
2019-02-24T00:03:11.444Z,37.47
2019-02-24T00:05:41.106Z,28.57
2019-02-24T00:08:10.815Z,31.13
2019-02-24T00:10:40.493Z,30.10
2019-02-24T00:13:10.186Z,29.93
2019-02-24T00:15:39.853Z,36.83
2019-02-24T00:18:09.564Z,32.23
2019-02-24T00:20:39.221Z,61.47
2019-02-24T00:23:08.893Z,43.07
2019-02-24T00:25:38.577Z,41.20
2019-02-24T00:28:08.295Z,33.43
2019-02-24T00:30:38.002Z,35.63
2019-02-24T00:33:07.659Z,42.20
2019-02-24T00:35:37.370Z,36.87
2019-02-24T00:38:07.040Z,30.47
2019-02-24T00:40:36.703Z,32.50
2019-02-24T00:43:06.357Z,34.93
2019-02-24T00:45:36.073Z,36.93
2019-02-24T00:48:05.748Z,36.00
2019-02-24T00:50:35.415Z,33.00
2019-02-24T00:53:05.114Z,38.07
2019-02-24T00:55:34.787Z,33.03
2019-02-24T00:58:04.497Z,27.83
2019-02-24T01:00:34.473Z,34.57
2019-02-24T01:03:04.124Z,29.53
2019-02-24T01:05:33.806Z,33.67
2019-02-24T01:08:03.485Z,30.33
2019-02-24T01:10:33.288Z,31.77
2019-02-24T01:13:02.954Z,26.47
2019-02-24T01:15:32.670Z,31.77
2019-02-24T01:18:02.329Z,33.73
2019-02-24T01:20:32.047Z,34.53
2019-02-24T01:23:01.755Z,33.80
2019-02-24T01:25:31.457Z,29.27
2019-02-24T01:28:01.156Z,32.87
2019-02-24T01:30:30.865Z,33.80
2019-02-24T01:33:00.518Z,29.10
2019-02-24T01:35:30.203Z,28.03
2019-02-24T01:37:59.925Z,26.70
2019-02-24T01:40:29.625Z,27.37
2019-02-24T01:42:59.278Z,34.63
2019-02-24T01:45:29.902Z,30.27
2019-02-24T01:47:59.624Z,30.07
2019-02-24T01:50:29.273Z,39.60
2019-02-24T01:52:58.949Z,27.77
2019-02-24T01:55:28.666Z,32.43
2019-02-24T01:57:58.340Z,30.73
2019-02-24T02:00:28.634Z,31.53
2019-02-24T02:02:58.301Z,31.87
2019-02-24T02:05:27.972Z,31.13
2019-02-24T02:07:57.667Z,30.73
2019-02-24T02:10:27.371Z,30.20
2019-02-24T02:12:57.482Z,27.40
2019-02-24T02:15:27.611Z,28.20
2019-02-24T02:17:57.326Z,30.90
2019-02-24T02:20:28.067Z,32.23
2019-02-24T02:22:57.722Z,27.70
2019-02-24T02:25:27.418Z,31.03
2019-02-24T02:27:57.074Z,24.17
2019-02-24T02:30:26.780Z,32.80
2019-02-24T02:32:57.431Z,30.67
2019-02-24T02:35:27.555Z,36.60
2019-02-24T02:37:57.223Z,34.60
2019-02-24T02:40:26.888Z,29.63
2019-02-24T02:42:56.581Z,30.73
2019-02-24T02:45:26.248Z,30.33
2019-02-24T02:47:55.941Z,29.20
2019-02-24T02:50:25.645Z,32.03
2019-02-24T02:52:55.316Z,29.80
2019-02-24T02:55:24.966Z,31.57
2019-02-24T02:57:54.670Z,28.30
2019-02-24T03:00:32.788Z,27.53
2019-02-24T03:03:02.665Z,29.57
2019-02-24T03:05:32.344Z,37.50
2019-02-24T03:08:13.231Z,29.47
2019-02-24T03:10:42.893Z,31.73
2019-02-24T03:13:12.554Z,31.40
2019-02-24T03:15:42.270Z,35.03
2019-02-24T03:18:12.350Z,34.83
2019-02-24T03:20:42.030Z,30.73
2019-02-24T03:23:11.701Z,42.27
2019-02-24T03:25:41.470Z,34.90
2019-02-24T03:28:11.119Z,38.83
2019-02-24T03:30:40.823Z,37.73
2019-02-24T03:33:10.497Z,34.13
2019-02-24T03:35:40.171Z,32.40
2019-02-24T03:38:09.887Z,32.60
2019-02-24T03:40:39.562Z,35.37
2019-02-24T03:43:09.249Z,33.97
2019-02-24T03:45:38.984Z,37.47
2019-02-24T03:48:08.648Z,37.37
2019-02-24T03:50:38.306Z,38.10
2019-02-24T03:53:08.035Z,38.60
2019-02-24T03:55:37.833Z,35.30
2019-02-24T03:58:07.707Z,37.10
2019-02-24T04:00:37.421Z,39.10
2019-02-24T04:03:07.075Z,35.77
2019-02-24T04:05:36.753Z,35.93
2019-02-24T04:08:06.820Z,37.17
2019-02-24T04:10:36.476Z,39.47
2019-02-24T04:13:06.131Z,35.30
2019-02-24T04:15:35.923Z,34.97
2019-02-24T04:18:05.646Z,38.87
2019-02-24T04:20:35.338Z,33.07
2019-02-24T04:23:04.998Z,40.63
2019-02-24T04:25:34.711Z,37.60
2019-02-24T04:28:04.351Z,34.07
2019-02-24T04:30:34.024Z,38.03
2019-02-24T04:33:03.740Z,38.77
2019-02-24T04:35:33.758Z,37.57
2019-02-24T04:38:03.446Z,36.67
2019-02-24T04:40:33.123Z,38.47
2019-02-24T04:43:02.922Z,39.13
2019-02-24T04:45:33.017Z,36.97
2019-02-24T04:48:02.680Z,34.63
2019-02-24T04:50:32.404Z,41.23
2019-02-24T04:53:02.080Z,37.10
2019-02-24T04:55:31.729Z,34.97
2019-02-24T04:58:01.444Z,36.97
2019-02-24T05:00:31.099Z,38.90
2019-02-24T05:03:00.763Z,40.63
2019-02-24T05:05:30.556Z,67.30
2019-02-24T05:08:00.221Z,40.87
2019-02-24T05:10:29.905Z,33.97
2019-02-24T05:12:59.590Z,36.63
2019-02-24T05:15:29.248Z,31.57
2019-02-24T05:17:58.947Z,37.20
2019-02-24T05:20:28.591Z,38.50
2019-02-24T05:22:58.341Z,38.00
2019-02-24T05:25:27.985Z,38.53
2019-02-24T05:27:57.622Z,35.47
2019-02-24T05:30:27.387Z,37.87
2019-02-24T05:32:57.065Z,38.73
2019-02-24T05:35:26.738Z,39.73
2019-02-24T05:37:56.402Z,44.27
2019-02-24T05:40:26.056Z,43.97
2019-02-24T05:42:55.774Z,44.90
2019-02-24T05:45:25.429Z,42.90
2019-02-24T05:47:55.097Z,42.77
2019-02-24T05:50:24.773Z,50.80
2019-02-24T05:52:54.485Z,39.90
2019-02-24T05:55:25.101Z,40.23
2019-02-24T05:57:54.760Z,45.10
2019-02-24T06:00:24.454Z,41.73
2019-02-24T06:02:54.595Z,39.20
2019-02-24T06:05:24.322Z,39.70
2019-02-24T06:07:54.039Z,43.03
2019-02-24T06:10:23.722Z,37.57
2019-02-24T06:12:53.404Z,39.77
2019-02-24T06:15:23.058Z,42.17
2019-02-24T06:17:52.748Z,39.63
2019-02-24T06:20:22.456Z,42.63
2019-02-24T06:22:52.153Z,45.13
2019-02-24T06:25:21.819Z,43.87
2019-02-24T06:27:51.491Z,38.67
2019-02-24T06:30:21.188Z,44.13
2019-02-24T06:32:50.898Z,39.67
2019-02-24T06:35:20.554Z,39.73
2019-02-24T06:37:50.210Z,44.00
2019-02-24T06:40:19.877Z,43.37
2019-02-24T06:42:49.540Z,46.27
2019-02-24T06:45:19.279Z,38.77
2019-02-24T06:47:48.935Z,39.77
2019-02-24T06:50:18.602Z,36.80
2019-02-24T06:52:48.336Z,44.17
2019-02-24T06:55:17.992Z,37.57
2019-02-24T06:57:47.664Z,41.17
2019-02-24T07:00:17.466Z,37.23
2019-02-24T07:02:47.128Z,41.27
2019-02-24T07:05:16.825Z,41.37
2019-02-24T07:07:46.537Z,38.27
2019-02-24T07:10:16.165Z,41.23
2019-02-24T07:12:45.834Z,40.23
2019-02-24T07:15:15.565Z,43.63
2019-02-24T07:17:45.217Z,39.00
2019-02-24T07:20:14.879Z,42.93
2019-02-24T07:22:56.479Z,41.43
2019-02-24T07:25:26.143Z,43.33
2019-02-24T07:27:56.024Z,34.90
2019-02-24T07:30:25.715Z,33.10
2019-02-24T07:32:55.378Z,36.87
2019-02-24T07:35:25.064Z,33.03
2019-02-24T07:37:54.781Z,29.93
2019-02-24T07:40:24.439Z,31.50
2019-02-24T07:42:55.044Z,36.10
2019-02-24T07:45:24.882Z,34.50
2019-02-24T07:47:54.589Z,37.37
2019-02-24T07:50:24.951Z,35.80
2019-02-24T07:52:54.662Z,34.17
2019-02-24T07:55:24.342Z,33.63
2019-02-24T07:57:53.970Z,30.13
2019-02-24T08:00:31.713Z,36.37
2019-02-24T08:02:54.980Z,34.60
2019-02-24T08:05:24.710Z,31.83
2019-02-24T08:07:54.393Z,31.83
2019-02-24T08:10:24.119Z,37.90
2019-02-24T08:12:53.811Z,37.10
2019-02-24T08:15:23.478Z,37.33
2019-02-24T08:17:53.143Z,39.47
2019-02-24T08:20:23.282Z,35.60
2019-02-24T08:22:53.099Z,38.87
2019-02-24T08:25:23.798Z,38.77
2019-02-24T08:27:55.514Z,41.33
2019-02-24T08:30:24.821Z,36.47
2019-02-24T08:32:54.503Z,39.83
2019-02-24T08:35:24.255Z,42.10
2019-02-24T08:37:54.450Z,31.90
2019-02-24T08:40:24.487Z,35.17
2019-02-24T08:42:54.283Z,30.03
2019-02-24T08:45:24.405Z,30.97
2019-02-24T08:47:54.087Z,40.50
2019-02-24T08:50:23.774Z,36.73
2019-02-24T08:52:53.474Z,27.50
2019-02-24T08:55:23.172Z,38.30
2019-02-24T08:57:52.976Z,30.83
2019-02-24T09:00:22.634Z,32.90
2019-02-24T09:02:53.017Z,47.60
2019-02-24T09:05:22.696Z,33.70
2019-02-24T09:07:52.381Z,27.57
2019-02-24T09:10:22.072Z,31.30
2019-02-24T09:12:51.803Z,27.57
2019-02-24T09:15:21.631Z,28.90
2019-02-24T09:17:51.318Z,26.20
2019-02-24T09:20:21.060Z,29.20
2019-02-24T09:22:52.124Z,34.77
2019-02-24T09:25:21.780Z,37.77
2019-02-24T09:27:51.499Z,31.73
2019-02-24T09:30:21.200Z,35.07
2019-02-24T09:32:50.918Z,32.07
2019-02-24T09:35:20.686Z,30.80
2019-02-24T09:37:50.377Z,25.57
2019-02-24T09:40:20.047Z,29.67
2019-02-24T09:42:49.793Z,35.17
2019-02-24T09:45:19.535Z,29.43
2019-02-24T09:47:49.222Z,24.63
2019-02-24T09:50:18.947Z,27.90
2019-02-24T09:52:48.605Z,30.33
2019-02-24T09:55:18.395Z,25.50
2019-02-24T09:57:48.092Z,27.13
2019-02-24T10:00:17.796Z,24.70
2019-02-24T10:02:47.475Z,27.63
2019-02-24T10:05:17.188Z,27.67
2019-02-24T10:07:46.891Z,25.50
2019-02-24T10:10:16.566Z,20.03
2019-02-24T10:12:46.255Z,23.03
2019-02-24T10:15:15.920Z,22.17
2019-02-24T10:17:45.603Z,24.33
2019-02-24T10:20:15.294Z,25.27
2019-02-24T10:22:45.063Z,22.17
2019-02-24T10:25:14.831Z,27.00
2019-02-24T10:27:44.485Z,27.17
2019-02-24T10:30:14.827Z,24.27
2019-02-24T10:32:44.472Z,23.77
2019-02-24T10:35:14.165Z,22.50
2019-02-24T10:37:43.862Z,25.10
2019-02-24T10:40:14.195Z,26.00
2019-02-24T10:42:43.887Z,23.17
2019-02-24T10:45:14.149Z,23.23
2019-02-24T10:47:43.806Z,20.83
2019-02-24T10:50:14.050Z,22.30
2019-02-24T10:52:43.707Z,24.87
2019-02-24T10:55:13.556Z,26.13
2019-02-24T10:57:43.505Z,23.70
2019-02-24T11:00:14.272Z,21.63
2019-02-24T11:02:43.969Z,26.63
2019-02-24T11:05:15.263Z,22.07
2019-02-24T11:07:44.906Z,23.30
2019-02-24T11:10:14.597Z,22.33
2019-02-24T11:13:38.379Z,23.93
2019-02-24T11:16:08.171Z,27.33
2019-02-24T11:18:38.000Z,28.80
2019-02-24T11:21:07.682Z,20.63
2019-02-24T11:23:37.433Z,24.13
2019-02-24T11:26:07.468Z,22.10
2019-02-24T11:28:37.206Z,26.17
2019-02-24T11:31:07.092Z,27.53
2019-02-24T11:33:38.119Z,30.43
2019-02-24T11:36:07.819Z,30.10
2019-02-24T11:38:37.502Z,27.27
2019-02-24T11:41:07.271Z,35.17
2019-02-24T11:43:37.011Z,30.23
2019-02-24T11:46:06.677Z,31.30
2019-02-24T11:48:36.419Z,26.70
2019-02-24T11:51:06.152Z,26.20
2019-02-24T11:53:35.825Z,25.03
2019-02-24T11:56:05.941Z,29.60
2019-02-24T11:58:35.598Z,28.53
2019-02-24T12:01:05.774Z,31.87
2019-02-24T12:03:35.461Z,24.73
2019-02-24T12:06:05.113Z,26.13
2019-02-24T12:08:36.313Z,28.37
2019-02-24T12:11:06.182Z,26.20
2019-02-24T12:13:36.087Z,27.90
2019-02-24T12:16:05.787Z,32.63
2019-02-24T12:18:35.482Z,27.10
2019-02-24T12:21:05.233Z,28.10
2019-02-24T12:23:35.843Z,30.93
2019-02-24T12:26:05.990Z,23.90
2019-02-24T12:28:35.646Z,27.33
2019-02-24T12:31:05.446Z,29.33
2019-02-24T12:33:35.121Z,31.40
2019-02-24T12:36:04.811Z,26.90
2019-02-24T12:38:34.594Z,31.57
2019-02-24T12:41:04.426Z,30.30
2019-02-24T12:43:34.143Z,32.87
2019-02-24T12:46:03.831Z,36.77
2019-02-24T12:48:33.507Z,26.97
2019-02-24T12:51:03.214Z,30.27
2019-02-24T12:53:32.968Z,27.07
2019-02-24T12:56:03.336Z,33.43
2019-02-24T12:58:33.031Z,35.50
2019-02-24T13:01:03.148Z,38.00
2019-02-24T13:03:32.819Z,37.20
2019-02-24T13:06:02.512Z,34.47
2019-02-24T13:08:32.244Z,38.50
2019-02-24T13:11:01.906Z,34.07
2019-02-24T13:13:31.622Z,28.77
2019-02-24T13:16:01.335Z,34.27
2019-02-24T13:18:31.062Z,32.53
2019-02-24T13:21:00.798Z,35.13
2019-02-24T13:23:30.451Z,40.53
2019-02-24T13:26:00.240Z,36.40
2019-02-24T13:28:31.703Z,37.20
2019-02-24T13:31:01.367Z,32.73
2019-02-24T13:33:31.050Z,33.47
2019-02-24T13:36:00.735Z,27.50
2019-02-24T13:38:30.613Z,32.40
2019-02-24T13:41:00.308Z,33.13
2019-02-24T13:43:30.032Z,33.30
2019-02-24T13:45:59.782Z,34.70
2019-02-24T13:48:29.543Z,30.30
2019-02-24T13:50:59.390Z,30.97
2019-02-24T13:53:29.231Z,31.93
2019-02-24T13:55:59.158Z,33.43
2019-02-24T13:58:29.651Z,30.23
2019-02-24T14:00:59.447Z,32.30
2019-02-24T14:03:29.142Z,28.73
2019-02-24T14:05:58.997Z,31.20
2019-02-24T14:08:28.904Z,36.57
2019-02-24T14:11:05.068Z,33.50
2019-02-24T14:13:41.730Z,31.73
2019-02-24T14:16:17.526Z,34.70
2019-02-24T14:18:47.409Z,43.17
2019-02-24T14:21:17.256Z,38.80
2019-02-24T14:23:47.166Z,36.97
2019-02-24T14:26:17.063Z,32.87
2019-02-24T14:28:47.027Z,29.33
2019-02-24T14:31:16.912Z,37.23
2019-02-24T14:33:46.768Z,33.60
2019-02-24T14:36:16.831Z,36.07
2019-02-24T14:38:46.678Z,33.77
2019-02-24T14:41:16.531Z,37.93
2019-02-24T14:43:46.434Z,42.97
2019-02-24T14:46:16.273Z,51.50
2019-02-24T14:48:46.319Z,60.17
2019-02-24T14:51:16.168Z,74.87
2019-02-24T14:53:46.074Z,53.40
2019-02-24T14:56:17.497Z,40.57
2019-02-24T14:58:47.346Z,38.00
2019-02-24T15:01:17.418Z,39.07
2019-02-24T15:03:47.273Z,52.17
2019-02-24T15:06:17.187Z,48.93
2019-02-24T15:08:47.074Z,45.53
2019-02-24T15:11:16.913Z,44.73
2019-02-24T15:13:46.781Z,51.57
2019-02-24T15:16:17.801Z,47.93
2019-02-24T15:18:47.710Z,48.30
2019-02-24T15:21:17.568Z,50.63
2019-02-24T15:23:47.418Z,48.07
2019-02-24T15:26:17.305Z,43.80
2019-02-24T15:28:47.134Z,45.47
2019-02-24T15:31:17.023Z,44.97
2019-02-24T15:33:46.858Z,51.83
2019-02-24T15:36:16.854Z,50.47
2019-02-24T15:38:46.796Z,38.43
2019-02-24T15:41:16.679Z,40.47
2019-02-24T15:43:46.533Z,39.67
2019-02-24T15:46:16.542Z,40.17
2019-02-24T15:48:46.487Z,40.10
2019-02-24T15:51:16.346Z,38.33
2019-02-24T15:53:46.503Z,34.20
2019-02-24T15:56:16.461Z,37.57
2019-02-24T15:58:46.519Z,44.77
2019-02-24T16:01:18.957Z,52.60
2019-02-24T16:03:48.889Z,42.10
2019-02-24T16:06:18.767Z,37.20
2019-02-24T16:08:48.604Z,38.37
2019-02-24T16:11:18.482Z,51.10
2019-02-24T16:13:48.375Z,48.30
2019-02-24T16:16:18.227Z,46.30
2019-02-24T16:18:48.095Z,47.40
2019-02-24T16:21:17.979Z,40.97
2019-02-24T16:23:47.878Z,37.43
2019-02-24T16:26:17.715Z,43.50
2019-02-24T16:28:48.397Z,47.63
2019-02-24T16:31:18.282Z,49.70
2019-02-24T16:33:48.122Z,50.77
2019-02-24T16:36:18.406Z,44.40
2019-02-24T16:38:48.358Z,47.70
2019-02-24T16:41:18.202Z,81.67
2019-02-24T16:43:48.144Z,64.27
2019-02-24T16:46:18.026Z,62.03
2019-02-24T16:48:47.913Z,51.33
2019-02-24T16:51:17.856Z,45.90
2019-02-24T16:53:47.731Z,41.57
2019-02-24T16:56:17.609Z,42.23
2019-02-24T16:58:51.042Z,44.80
2019-02-24T17:01:20.888Z,43.33
2019-02-24T17:03:50.736Z,38.43
2019-02-24T17:06:20.981Z,41.07
2019-02-24T17:08:52.076Z,41.00
2019-02-24T17:11:28.033Z,35.80
2019-02-24T17:13:54.054Z,38.67
2019-02-24T17:16:24.063Z,41.47
2019-02-24T17:18:53.987Z,47.33
2019-02-24T17:21:29.899Z,49.47
2019-02-24T17:23:59.785Z,54.97
2019-02-24T17:26:29.657Z,64.37
2019-02-24T17:28:59.538Z,73.43
2019-02-24T17:31:29.468Z,94.87
2019-02-24T17:33:59.342Z,114.47
2019-02-24T17:36:29.396Z,136.77
2019-02-24T17:38:59.279Z,180.80
2019-02-24T17:41:29.132Z,404.67
2019-02-24T17:43:59.140Z,396.83
2019-02-24T17:46:29.234Z,365.40
2019-02-24T17:48:59.099Z,237.93
2019-02-24T17:51:28.967Z,221.07
2019-02-24T17:53:59.314Z,236.07
2019-02-24T17:56:29.230Z,228.47
2019-02-24T17:58:59.152Z,218.53
2019-02-24T18:01:29.015Z,207.60
2019-02-24T18:04:01.928Z,199.03
2019-02-24T18:06:31.850Z,184.93
2019-02-24T18:09:01.698Z,222.00
2019-02-24T18:11:32.041Z,202.63
2019-02-24T18:14:01.968Z,203.03
2019-02-24T18:16:31.818Z,186.97
2019-02-24T18:19:01.672Z,170.00
2019-02-24T18:21:31.565Z,164.83
2019-02-24T18:24:01.419Z,145.97
2019-02-24T18:26:31.296Z,143.20
2019-02-24T18:29:01.151Z,154.10
2019-02-24T18:31:31.017Z,145.50
2019-02-24T18:34:03.242Z,136.73
2019-02-24T18:36:33.177Z,123.87
2019-02-24T18:39:03.126Z,121.70
2019-02-24T18:41:32.990Z,107.33
2019-02-24T18:44:02.866Z,103.03
2019-02-24T18:46:32.837Z,96.20
2019-02-24T18:49:02.691Z,97.63
2019-02-24T18:51:32.523Z,97.60
2019-02-24T18:54:02.745Z,94.03
2019-02-24T18:56:32.580Z,100.50
2019-02-24T18:59:02.492Z,102.63
2019-02-24T19:01:32.379Z,112.90
2019-02-24T19:04:02.285Z,129.30
2019-02-24T19:06:38.976Z,127.97
2019-02-24T19:09:04.732Z,111.97
2019-02-24T19:11:36.307Z,100.83
2019-02-24T19:14:06.373Z,93.13
2019-02-24T19:16:37.448Z,98.47
2019-02-24T19:19:07.337Z,83.33
2019-02-24T19:21:37.259Z,76.40
2019-02-24T19:24:07.134Z,79.83
2019-02-24T19:26:37.055Z,81.17
2019-02-24T19:29:06.923Z,80.03
2019-02-24T19:31:36.778Z,90.80
2019-02-24T19:34:07.161Z,78.67
2019-02-24T19:36:37.238Z,86.97
2019-02-24T19:39:09.697Z,89.93
2019-02-24T19:41:39.562Z,90.37
2019-02-24T19:44:09.574Z,84.90
2019-02-24T19:46:39.484Z,88.30
2019-02-24T19:49:09.439Z,99.00
2019-02-24T19:51:39.286Z,96.93
2019-02-24T19:54:09.134Z,94.80
2019-02-24T19:56:39.072Z,81.83
2019-02-24T19:59:08.969Z,85.17
2019-02-24T20:01:38.917Z,90.20
2019-02-24T20:04:15.782Z,89.03
2019-02-24T20:06:40.271Z,88.13
2019-02-24T20:09:10.883Z,92.77
2019-02-24T20:11:42.840Z,83.33
2019-02-24T20:14:12.928Z,77.60
2019-02-24T20:16:43.787Z,75.53
2019-02-24T20:19:13.654Z,85.37
2019-02-24T20:21:46.025Z,92.43
2019-02-24T20:24:17.314Z,162.70
2019-02-24T20:26:47.315Z,142.10
2019-02-24T20:29:17.257Z,133.87
2019-02-24T20:31:47.160Z,139.73
2019-02-24T20:34:25.185Z,108.73
2019-02-24T20:36:48.570Z,113.30
2019-02-24T20:39:18.466Z,91.60
2019-02-24T20:41:48.366Z,88.53
2019-02-24T20:44:18.271Z,83.10
2019-02-24T20:46:48.122Z,94.53
2019-02-24T20:49:18.094Z,97.77
2019-02-24T20:51:48.065Z,87.97
2019-02-24T20:54:19.155Z,91.63
2019-02-24T20:56:49.068Z,99.30
2019-02-24T20:59:19.123Z,102.40
2019-02-24T21:01:49.022Z,89.70
2019-02-24T21:04:18.902Z,94.63
2019-02-24T21:06:49.940Z,112.67
2019-02-24T21:09:19.817Z,104.07
2019-02-24T21:11:49.741Z,122.37
2019-02-24T21:14:19.600Z,114.97
2019-02-24T21:16:49.507Z,114.33
2019-02-24T21:19:19.387Z,104.17
2019-02-24T21:21:49.264Z,97.03
2019-02-24T21:24:19.182Z,97.73
2019-02-24T21:26:49.326Z,108.37
2019-02-24T21:29:19.334Z,96.50
2019-02-24T21:31:49.436Z,89.07
2019-02-24T21:34:19.269Z,85.47
2019-02-24T21:36:49.185Z,98.43
2019-02-24T21:39:19.095Z,109.33
2019-02-24T21:41:49.014Z,105.97
2019-02-24T21:44:18.891Z,148.27
2019-02-24T21:46:48.806Z,138.07
2019-02-24T21:49:18.718Z,126.77
2019-02-24T21:51:48.562Z,121.13
2019-02-24T21:54:18.422Z,120.00
2019-02-24T21:56:48.321Z,96.30
2019-02-24T21:59:18.192Z,93.37
2019-02-24T22:01:48.040Z,98.80
2019-02-24T22:04:17.961Z,108.13
2019-02-24T22:06:47.818Z,110.13
2019-02-24T22:09:17.710Z,109.97
2019-02-24T22:11:47.625Z,86.93
2019-02-24T22:14:17.507Z,79.47
2019-02-24T22:16:47.381Z,75.73
2019-02-24T22:19:17.371Z,84.17
2019-02-24T22:21:47.285Z,77.23
2019-02-24T22:24:17.130Z,78.57
2019-02-24T22:26:47.070Z,68.47
2019-02-24T22:29:16.923Z,95.47
2019-02-24T22:31:46.826Z,88.97
2019-02-24T22:34:16.715Z,80.03
2019-02-24T22:36:46.580Z,89.30
2019-02-24T22:39:16.467Z,69.57
2019-02-24T22:41:46.372Z,79.17
2019-02-24T22:44:16.312Z,86.90
2019-02-24T22:46:46.251Z,66.13
2019-02-24T22:49:16.113Z,81.87
2019-02-24T22:51:45.955Z,69.17
2019-02-24T22:54:15.865Z,88.90
2019-02-24T22:56:45.734Z,93.40
2019-02-24T22:59:15.578Z,88.13
2019-02-24T23:01:47.087Z,84.10
2019-02-24T23:04:17.032Z,90.37
2019-02-24T23:06:47.003Z,81.50
2019-02-24T23:09:20.196Z,75.03
2019-02-24T23:11:50.044Z,88.70
2019-02-24T23:14:19.889Z,105.40
2019-02-24T23:16:49.801Z,84.30
2019-02-24T23:19:19.675Z,74.40
2019-02-24T23:21:49.593Z,75.40
2019-02-24T23:24:19.453Z,77.67
2019-02-24T23:26:49.316Z,83.47
2019-02-24T23:29:21.329Z,62.30
2019-02-24T23:31:51.193Z,77.43
2019-02-24T23:34:21.097Z,72.57
2019-02-24T23:36:50.934Z,75.77
2019-02-24T23:39:21.059Z,67.57
2019-02-24T23:41:50.952Z,73.67
2019-02-24T23:44:20.826Z,70.17
2019-02-24T23:46:50.722Z,70.00
2019-02-24T23:49:20.557Z,62.47
2019-02-24T23:51:50.446Z,64.50
2019-02-24T23:54:20.301Z,58.23
2019-02-24T23:56:50.169Z,52.23
2019-02-24T23:59:20.024Z,54.33
